sensor_id;sensor_type;location;lat;lon;timestamp;temperature;humidity
26270;DHT22;15937;50.612;6.656;2024-02-16T00:02:53;12.80;99.90
26270;DHT22;15937;50.612;6.656;2024-02-16T00:06:56;12.80;99.90
26270;DHT22;15937;50.612;6.656;2024-02-16T00:15:04;12.90;99.90
26270;DHT22;15937;50.612;6.656;2024-02-16T00:19:06;12.80;99.90
26270;DHT22;15937;50.612;6.656;2024-02-16T00:23:09;12.80;99.90
26270;DHT22;15937;50.612;6.656;2024-02-16T00:27:11;12.80;99.90
26270;DHT22;15937;50.612;6.656;2024-02-16T00:31:13;12.90;99.90
26270;DHT22;15937;50.612;6.656;2024-02-16T00:43:30;13.00;99.90
26270;DHT22;15937;50.612;6.656;2024-02-16T00:47:32;13.00;99.90
26270;DHT22;15937;50.612;6.656;2024-02-16T00:51:34;13.00;99.90
26270;DHT22;15937;50.612;6.656;2024-02-16T00:55:36;13.00;99.90
26270;DHT22;15937;50.612;6.656;2024-02-16T00:59:39;13.00;99.90
26270;DHT22;15937;50.612;6.656;2024-02-16T01:03:41;13.10;99.90
26270;DHT22;15937;50.612;6.656;2024-02-16T01:07:44;13.10;99.90
26270;DHT22;15937;50.612;6.656;2024-02-16T01:11:47;13.00;99.90
26270;DHT22;15937;50.612;6.656;2024-02-16T01:15:49;13.00;99.90
26270;DHT22;15937;50.612;6.656;2024-02-16T01:19:51;13.10;99.90
26270;DHT22;15937;50.612;6.656;2024-02-16T01:23:53;13.30;99.90
26270;DHT22;15937;50.612;6.656;2024-02-16T01:27:55;13.20;99.90
26270;DHT22;15937;50.612;6.656;2024-02-16T01:31:58;13.30;99.90
26270;DHT22;15937;50.612;6.656;2024-02-16T01:36:00;13.10;99.90
26270;DHT22;15937;50.612;6.656;2024-02-16T01:40:02;12.90;99.90
26270;DHT22;15937;50.612;6.656;2024-02-16T01:44:05;12.80;99.90
26270;DHT22;15937;50.612;6.656;2024-02-16T01:48:07;12.90;99.90
26270;DHT22;15937;50.612;6.656;2024-02-16T01:52:09;12.90;99.90
26270;DHT22;15937;50.612;6.656;2024-02-16T01:56:11;12.90;99.90
26270;DHT22;15937;50.612;6.656;2024-02-16T02:00:15;12.90;99.90
26270;DHT22;15937;50.612;6.656;2024-02-16T02:04:19;13.00;99.90
26270;DHT22;15937;50.612;6.656;2024-02-16T02:08:22;13.00;99.90
26270;DHT22;15937;50.612;6.656;2024-02-16T02:12:24;13.00;99.90
26270;DHT22;15937;50.612;6.656;2024-02-16T02:16:26;13.20;99.90
26270;DHT22;15937;50.612;6.656;2024-02-16T02:20:29;13.30;99.90
26270;DHT22;15937;50.612;6.656;2024-02-16T02:24:30;13.40;99.90
26270;DHT22;15937;50.612;6.656;2024-02-16T02:28:33;13.40;99.90
26270;DHT22;15937;50.612;6.656;2024-02-16T02:32:35;13.40;99.90
26270;DHT22;15937;50.612;6.656;2024-02-16T02:36:39;13.30;99.90
26270;DHT22;15937;50.612;6.656;2024-02-16T02:40:41;13.30;99.90
26270;DHT22;15937;50.612;6.656;2024-02-16T02:44:43;13.20;99.90
26270;DHT22;15937;50.612;6.656;2024-02-16T02:48:52;13.30;99.90
26270;DHT22;15937;50.612;6.656;2024-02-16T02:52:55;13.20;99.90
26270;DHT22;15937;50.612;6.656;2024-02-16T02:56:57;13.10;99.90
26270;DHT22;15937;50.612;6.656;2024-02-16T03:00:59;12.90;99.90
26270;DHT22;15937;50.612;6.656;2024-02-16T03:05:02;12.90;99.90
26270;DHT22;15937;50.612;6.656;2024-02-16T03:09:05;12.80;99.90
26270;DHT22;15937;50.612;6.656;2024-02-16T03:13:08;12.80;99.90
26270;DHT22;15937;50.612;6.656;2024-02-16T03:17:10;12.80;99.90
26270;DHT22;15937;50.612;6.656;2024-02-16T03:21:13;12.70;99.90
26270;DHT22;15937;50.612;6.656;2024-02-16T03:25:19;12.70;99.90
26270;DHT22;15937;50.612;6.656;2024-02-16T03:29:22;12.80;99.90
26270;DHT22;15937;50.612;6.656;2024-02-16T03:33:24;12.90;99.90
26270;DHT22;15937;50.612;6.656;2024-02-16T03:37:26;12.90;99.90
26270;DHT22;15937;50.612;6.656;2024-02-16T03:41:28;12.90;99.90
26270;DHT22;15937;50.612;6.656;2024-02-16T03:45:30;12.90;99.90
26270;DHT22;15937;50.612;6.656;2024-02-16T03:49:32;12.80;99.90
26270;DHT22;15937;50.612;6.656;2024-02-16T03:53:35;12.70;99.90
26270;DHT22;15937;50.612;6.656;2024-02-16T03:57:39;12.60;99.90
26270;DHT22;15937;50.612;6.656;2024-02-16T04:01:41;12.50;99.90
26270;DHT22;15937;50.612;6.656;2024-02-16T04:05:44;12.50;99.90
26270;DHT22;15937;50.612;6.656;2024-02-16T04:09:46;12.40;99.90
26270;DHT22;15937;50.612;6.656;2024-02-16T04:13:48;12.40;99.90
26270;DHT22;15937;50.612;6.656;2024-02-16T04:17:50;12.40;99.90
26270;DHT22;15937;50.612;6.656;2024-02-16T04:21:52;12.30;99.90
26270;DHT22;15937;50.612;6.656;2024-02-16T04:25:57;12.30;99.90
26270;DHT22;15937;50.612;6.656;2024-02-16T04:29:58;12.30;99.90
26270;DHT22;15937;50.612;6.656;2024-02-16T04:34:01;12.30;99.90
26270;DHT22;15937;50.612;6.656;2024-02-16T04:38:04;12.30;99.90
26270;DHT22;15937;50.612;6.656;2024-02-16T04:42:08;12.30;99.90
26270;DHT22;15937;50.612;6.656;2024-02-16T04:46:14;12.30;99.90
26270;DHT22;15937;50.612;6.656;2024-02-16T04:50:17;12.30;99.90
26270;DHT22;15937;50.612;6.656;2024-02-16T04:54:19;12.30;99.90
26270;DHT22;15937;50.612;6.656;2024-02-16T04:58:21;12.30;99.90
26270;DHT22;15937;50.612;6.656;2024-02-16T05:02:23;12.30;99.90
26270;DHT22;15937;50.612;6.656;2024-02-16T05:06:26;12.30;99.90
26270;DHT22;15937;50.612;6.656;2024-02-16T05:10:28;12.30;99.90
26270;DHT22;15937;50.612;6.656;2024-02-16T05:14:30;12.30;99.90
26270;DHT22;15937;50.612;6.656;2024-02-16T05:18:32;12.30;99.90
26270;DHT22;15937;50.612;6.656;2024-02-16T05:22:34;12.30;99.90
26270;DHT22;15937;50.612;6.656;2024-02-16T05:26:36;12.30;99.90
26270;DHT22;15937;50.612;6.656;2024-02-16T05:30:38;12.50;99.90
26270;DHT22;15937;50.612;6.656;2024-02-16T05:34:40;12.50;99.90
26270;DHT22;15937;50.612;6.656;2024-02-16T05:38:44;12.40;99.90
26270;DHT22;15937;50.612;6.656;2024-02-16T05:42:47;12.60;99.90
26270;DHT22;15937;50.612;6.656;2024-02-16T05:46:49;12.60;99.90
26270;DHT22;15937;50.612;6.656;2024-02-16T05:50:51;12.60;99.90
26270;DHT22;15937;50.612;6.656;2024-02-16T05:54:53;12.70;99.90
26270;DHT22;15937;50.612;6.656;2024-02-16T05:58:55;12.80;99.90
26270;DHT22;15937;50.612;6.656;2024-02-16T06:02:57;12.70;99.90
26270;DHT22;15937;50.612;6.656;2024-02-16T06:06:59;12.80;99.90
26270;DHT22;15937;50.612;6.656;2024-02-16T06:11:02;12.70;99.90
26270;DHT22;15937;50.612;6.656;2024-02-16T06:15:05;12.70;99.90
26270;DHT22;15937;50.612;6.656;2024-02-16T06:19:07;12.70;99.90
26270;DHT22;15937;50.612;6.656;2024-02-16T06:23:10;12.60;99.90
26270;DHT22;15937;50.612;6.656;2024-02-16T06:27:13;12.70;99.90
26270;DHT22;15937;50.612;6.656;2024-02-16T06:31:16;12.70;99.90
26270;DHT22;15937;50.612;6.656;2024-02-16T06:35:18;12.70;99.90
26270;DHT22;15937;50.612;6.656;2024-02-16T06:39:20;12.70;99.90
26270;DHT22;15937;50.612;6.656;2024-02-16T06:43:24;12.70;99.90
26270;DHT22;15937;50.612;6.656;2024-02-16T06:47:26;12.80;99.90
26270;DHT22;15937;50.612;6.656;2024-02-16T06:51:28;12.80;99.90
26270;DHT22;15937;50.612;6.656;2024-02-16T06:55:30;12.90;99.90
26270;DHT22;15937;50.612;6.656;2024-02-16T06:59:32;13.00;99.90
26270;DHT22;15937;50.612;6.656;2024-02-16T07:03:34;13.00;99.90
26270;DHT22;15937;50.612;6.656;2024-02-16T07:07:38;13.10;99.90
26270;DHT22;15937;50.612;6.656;2024-02-16T07:11:41;13.10;99.90
26270;DHT22;15937;50.612;6.656;2024-02-16T07:15:44;13.20;99.90
26270;DHT22;15937;50.612;6.656;2024-02-16T07:19:46;13.30;99.90
26270;DHT22;15937;50.612;6.656;2024-02-16T07:23:48;13.30;99.90
26270;DHT22;15937;50.612;6.656;2024-02-16T07:27:52;13.30;99.90
26270;DHT22;15937;50.612;6.656;2024-02-16T07:31:54;13.40;99.90
26270;DHT22;15937;50.612;6.656;2024-02-16T07:35:57;13.40;99.90
26270;DHT22;15937;50.612;6.656;2024-02-16T07:40:00;13.40;99.90
26270;DHT22;15937;50.612;6.656;2024-02-16T07:44:01;13.50;99.90
26270;DHT22;15937;50.612;6.656;2024-02-16T07:48:05;13.40;99.90
26270;DHT22;15937;50.612;6.656;2024-02-16T07:52:08;13.50;99.90
26270;DHT22;15937;50.612;6.656;2024-02-16T07:56:11;13.40;99.90
26270;DHT22;15937;50.612;6.656;2024-02-16T08:00:13;13.40;99.90
26270;DHT22;15937;50.612;6.656;2024-02-16T08:04:17;13.40;99.90
26270;DHT22;15937;50.612;6.656;2024-02-16T08:08:19;13.40;99.90
26270;DHT22;15937;50.612;6.656;2024-02-16T08:12:24;13.40;99.90
26270;DHT22;15937;50.612;6.656;2024-02-16T08:16:29;13.40;99.90
26270;DHT22;15937;50.612;6.656;2024-02-16T08:20:31;13.40;99.90
26270;DHT22;15937;50.612;6.656;2024-02-16T08:24:36;13.30;99.90
26270;DHT22;15937;50.612;6.656;2024-02-16T08:28:38;13.30;99.90
26270;DHT22;15937;50.612;6.656;2024-02-16T08:32:41;13.30;99.90
26270;DHT22;15937;50.612;6.656;2024-02-16T08:36:46;13.30;99.90
26270;DHT22;15937;50.612;6.656;2024-02-16T08:40:48;13.30;99.90
26270;DHT22;15937;50.612;6.656;2024-02-16T08:44:53;13.30;99.90
26270;DHT22;15937;50.612;6.656;2024-02-16T08:48:56;13.30;99.90
26270;DHT22;15937;50.612;6.656;2024-02-16T08:52:58;13.40;99.90
26270;DHT22;15937;50.612;6.656;2024-02-16T08:57:00;13.40;99.90
26270;DHT22;15937;50.612;6.656;2024-02-16T09:01:02;13.40;99.90
26270;DHT22;15937;50.612;6.656;2024-02-16T09:05:05;13.40;99.90
26270;DHT22;15937;50.612;6.656;2024-02-16T09:09:07;13.40;99.90
26270;DHT22;15937;50.612;6.656;2024-02-16T09:13:10;13.50;99.90
26270;DHT22;15937;50.612;6.656;2024-02-16T09:17:12;13.50;99.90
26270;DHT22;15937;50.612;6.656;2024-02-16T09:21:14;13.50;99.90
26270;DHT22;15937;50.612;6.656;2024-02-16T09:25:20;13.50;99.90
26270;DHT22;15937;50.612;6.656;2024-02-16T09:29:23;13.50;99.90
26270;DHT22;15937;50.612;6.656;2024-02-16T09:33:26;13.40;99.90
26270;DHT22;15937;50.612;6.656;2024-02-16T09:37:29;13.40;99.90
26270;DHT22;15937;50.612;6.656;2024-02-16T09:41:34;13.40;99.90
26270;DHT22;15937;50.612;6.656;2024-02-16T09:45:38;13.40;99.90
26270;DHT22;15937;50.612;6.656;2024-02-16T09:49:40;13.40;99.90
26270;DHT22;15937;50.612;6.656;2024-02-16T09:53:43;13.40;99.90
26270;DHT22;15937;50.612;6.656;2024-02-16T09:57:45;13.40;99.90
26270;DHT22;15937;50.612;6.656;2024-02-16T10:01:47;13.40;99.90
26270;DHT22;15937;50.612;6.656;2024-02-16T10:05:50;13.40;99.90
26270;DHT22;15937;50.612;6.656;2024-02-16T10:09:53;13.40;99.90
26270;DHT22;15937;50.612;6.656;2024-02-16T10:14:00;13.30;99.90
26270;DHT22;15937;50.612;6.656;2024-02-16T10:18:06;13.40;99.90
26270;DHT22;15937;50.612;6.656;2024-02-16T10:22:10;13.40;99.90
26270;DHT22;15937;50.612;6.656;2024-02-16T10:26:15;13.40;99.90
26270;DHT22;15937;50.612;6.656;2024-02-16T10:30:19;13.40;99.90
26270;DHT22;15937;50.612;6.656;2024-02-16T10:34:24;13.40;99.90
26270;DHT22;15937;50.612;6.656;2024-02-16T10:38:29;13.40;99.90
26270;DHT22;15937;50.612;6.656;2024-02-16T10:42:36;13.40;99.90
26270;DHT22;15937;50.612;6.656;2024-02-16T10:46:40;13.50;99.90
26270;DHT22;15937;50.612;6.656;2024-02-16T10:50:42;13.50;99.90
26270;DHT22;15937;50.612;6.656;2024-02-16T10:54:45;13.50;99.90
26270;DHT22;15937;50.612;6.656;2024-02-16T10:58:47;13.50;99.90
26270;DHT22;15937;50.612;6.656;2024-02-16T11:02:57;13.60;99.90
26270;DHT22;15937;50.612;6.656;2024-02-16T11:07:01;13.60;99.90
26270;DHT22;15937;50.612;6.656;2024-02-16T11:11:07;13.60;99.90
26270;DHT22;15937;50.612;6.656;2024-02-16T11:15:13;13.70;99.90
26270;DHT22;15937;50.612;6.656;2024-02-16T11:19:16;13.70;99.90
26270;DHT22;15937;50.612;6.656;2024-02-16T11:23:28;13.80;99.90
26270;DHT22;15937;50.612;6.656;2024-02-16T11:27:31;13.80;99.90
26270;DHT22;15937;50.612;6.656;2024-02-16T11:31:37;13.80;99.90
26270;DHT22;15937;50.612;6.656;2024-02-16T11:35:39;13.80;99.90
26270;DHT22;15937;50.612;6.656;2024-02-16T11:39:41;13.80;99.90
26270;DHT22;15937;50.612;6.656;2024-02-16T11:43:47;13.80;99.90
26270;DHT22;15937;50.612;6.656;2024-02-16T11:48:11;13.90;99.90
26270;DHT22;15937;50.612;6.656;2024-02-16T11:52:14;13.90;99.90
26270;DHT22;15937;50.612;6.656;2024-02-16T11:56:23;13.90;99.90
26270;DHT22;15937;50.612;6.656;2024-02-16T12:00:29;13.90;99.90
26270;DHT22;15937;50.612;6.656;2024-02-16T12:04:31;13.90;99.90
26270;DHT22;15937;50.612;6.656;2024-02-16T12:08:42;13.90;99.90
26270;DHT22;15937;50.612;6.656;2024-02-16T12:12:44;13.90;99.90
26270;DHT22;15937;50.612;6.656;2024-02-16T12:16:51;13.90;99.90
26270;DHT22;15937;50.612;6.656;2024-02-16T12:21:01;13.90;99.90
26270;DHT22;15937;50.612;6.656;2024-02-16T12:25:03;13.90;99.90
26270;DHT22;15937;50.612;6.656;2024-02-16T12:29:09;13.80;99.90
26270;DHT22;15937;50.612;6.656;2024-02-16T12:33:15;13.80;99.90
26270;DHT22;15937;50.612;6.656;2024-02-16T12:37:19;13.80;99.90
26270;DHT22;15937;50.612;6.656;2024-02-16T12:41:21;13.80;99.90
26270;DHT22;15937;50.612;6.656;2024-02-16T12:45:23;13.80;99.90
26270;DHT22;15937;50.612;6.656;2024-02-16T12:49:26;13.80;99.90
26270;DHT22;15937;50.612;6.656;2024-02-16T12:53:28;13.80;99.90
26270;DHT22;15937;50.612;6.656;2024-02-16T12:57:37;13.80;99.90
26270;DHT22;15937;50.612;6.656;2024-02-16T13:01:41;13.80;99.90
26270;DHT22;15937;50.612;6.656;2024-02-16T13:05:45;13.80;99.90
26270;DHT22;15937;50.612;6.656;2024-02-16T13:09:47;13.80;99.90
26270;DHT22;15937;50.612;6.656;2024-02-16T13:13:49;13.80;99.90
26270;DHT22;15937;50.612;6.656;2024-02-16T13:17:51;13.70;99.90
26270;DHT22;15937;50.612;6.656;2024-02-16T13:21:53;13.70;99.90
26270;DHT22;15937;50.612;6.656;2024-02-16T13:25:55;13.80;99.90
26270;DHT22;15937;50.612;6.656;2024-02-16T13:29:58;13.80;99.90
26270;DHT22;15937;50.612;6.656;2024-02-16T13:34:00;13.80;99.90
26270;DHT22;15937;50.612;6.656;2024-02-16T13:38:03;13.80;99.90
26270;DHT22;15937;50.612;6.656;2024-02-16T13:42:05;13.90;99.90
26270;DHT22;15937;50.612;6.656;2024-02-16T13:46:07;13.90;99.90
26270;DHT22;15937;50.612;6.656;2024-02-16T13:50:10;14.00;99.90
26270;DHT22;15937;50.612;6.656;2024-02-16T13:54:12;14.00;99.90
26270;DHT22;15937;50.612;6.656;2024-02-16T13:58:15;14.00;99.90
26270;DHT22;15937;50.612;6.656;2024-02-16T14:02:18;14.00;99.90
26270;DHT22;15937;50.612;6.656;2024-02-16T14:06:20;14.00;99.90
26270;DHT22;15937;50.612;6.656;2024-02-16T14:10:22;14.10;99.90
26270;DHT22;15937;50.612;6.656;2024-02-16T14:14:25;13.90;99.90
26270;DHT22;15937;50.612;6.656;2024-02-16T14:18:38;13.90;99.90
26270;DHT22;15937;50.612;6.656;2024-02-16T14:22:41;13.80;99.90
26270;DHT22;15937;50.612;6.656;2024-02-16T14:26:42;13.90;99.90
26270;DHT22;15937;50.612;6.656;2024-02-16T14:30:44;13.90;99.90
26270;DHT22;15937;50.612;6.656;2024-02-16T14:34:46;13.90;99.90
26270;DHT22;15937;50.612;6.656;2024-02-16T14:38:49;13.80;99.90
26270;DHT22;15937;50.612;6.656;2024-02-16T14:42:56;13.90;99.90
26270;DHT22;15937;50.612;6.656;2024-02-16T14:46:58;13.90;99.90
26270;DHT22;15937;50.612;6.656;2024-02-16T14:51:00;13.90;99.90
26270;DHT22;15937;50.612;6.656;2024-02-16T14:55:03;13.90;99.90
26270;DHT22;15937;50.612;6.656;2024-02-16T14:59:05;13.90;99.90
26270;DHT22;15937;50.612;6.656;2024-02-16T15:03:12;13.80;99.90
26270;DHT22;15937;50.612;6.656;2024-02-16T15:07:16;13.90;99.90
26270;DHT22;15937;50.612;6.656;2024-02-16T15:11:18;13.90;99.90
26270;DHT22;15937;50.612;6.656;2024-02-16T15:15:21;13.90;99.90
26270;DHT22;15937;50.612;6.656;2024-02-16T15:19:26;13.90;99.90
26270;DHT22;15937;50.612;6.656;2024-02-16T15:23:28;13.80;99.90
26270;DHT22;15937;50.612;6.656;2024-02-16T15:27:31;13.90;99.90
26270;DHT22;15937;50.612;6.656;2024-02-16T15:31:33;13.90;99.90
26270;DHT22;15937;50.612;6.656;2024-02-16T15:35:36;13.90;99.90
26270;DHT22;15937;50.612;6.656;2024-02-16T15:39:38;13.80;99.90
26270;DHT22;15937;50.612;6.656;2024-02-16T15:43:41;13.80;99.90
26270;DHT22;15937;50.612;6.656;2024-02-16T15:47:43;13.70;99.90
26270;DHT22;15937;50.612;6.656;2024-02-16T15:51:47;13.70;99.90
26270;DHT22;15937;50.612;6.656;2024-02-16T15:55:49;13.60;99.90
26270;DHT22;15937;50.612;6.656;2024-02-16T15:59:53;13.60;99.90
26270;DHT22;15937;50.612;6.656;2024-02-16T16:03:56;13.60;99.90
26270;DHT22;15937;50.612;6.656;2024-02-16T16:07:58;13.50;99.90
26270;DHT22;15937;50.612;6.656;2024-02-16T16:11:59;13.50;99.90
26270;DHT22;15937;50.612;6.656;2024-02-16T16:16:02;13.50;99.90
26270;DHT22;15937;50.612;6.656;2024-02-16T16:24:25;13.30;99.90
26270;DHT22;15937;50.612;6.656;2024-02-16T16:28:28;13.20;99.90
26270;DHT22;15937;50.612;6.656;2024-02-16T16:32:30;13.20;99.90
26270;DHT22;15937;50.612;6.656;2024-02-16T16:36:32;13.30;99.90
26270;DHT22;15937;50.612;6.656;2024-02-16T16:40:37;13.10;99.90
26270;DHT22;15937;50.612;6.656;2024-02-16T16:44:39;13.10;99.90
26270;DHT22;15937;50.612;6.656;2024-02-16T16:48:41;13.10;99.90
26270;DHT22;15937;50.612;6.656;2024-02-16T16:52:43;13.00;99.90
26270;DHT22;15937;50.612;6.656;2024-02-16T16:56:45;12.80;99.90
26270;DHT22;15937;50.612;6.656;2024-02-16T17:00:47;12.70;99.90
26270;DHT22;15937;50.612;6.656;2024-02-16T17:04:49;12.70;99.90
26270;DHT22;15937;50.612;6.656;2024-02-16T17:08:52;12.50;99.90
26270;DHT22;15937;50.612;6.656;2024-02-16T17:12:54;12.40;99.90
26270;DHT22;15937;50.612;6.656;2024-02-16T17:16:56;12.30;99.90
26270;DHT22;15937;50.612;6.656;2024-02-16T17:20:58;12.20;99.90
26270;DHT22;15937;50.612;6.656;2024-02-16T17:25:00;12.10;99.90
26270;DHT22;15937;50.612;6.656;2024-02-16T17:29:05;11.60;99.90
26270;DHT22;15937;50.612;6.656;2024-02-16T17:33:07;11.40;99.90
26270;DHT22;15937;50.612;6.656;2024-02-16T17:37:09;11.20;99.90
26270;DHT22;15937;50.612;6.656;2024-02-16T17:41:11;11.30;99.90
26270;DHT22;15937;50.612;6.656;2024-02-16T17:45:15;11.40;99.90
26270;DHT22;15937;50.612;6.656;2024-02-16T17:49:22;11.30;99.90
26270;DHT22;15937;50.612;6.656;2024-02-16T17:53:29;11.40;99.90
26270;DHT22;15937;50.612;6.656;2024-02-16T17:57:31;11.30;99.90
26270;DHT22;15937;50.612;6.656;2024-02-16T18:01:32;11.30;99.90
26270;DHT22;15937;50.612;6.656;2024-02-16T18:05:36;11.40;99.90
26270;DHT22;15937;50.612;6.656;2024-02-16T18:09:40;11.40;99.90
26270;DHT22;15937;50.612;6.656;2024-02-16T18:13:43;11.40;99.90
26270;DHT22;15937;50.612;6.656;2024-02-16T18:17:45;11.40;99.90
26270;DHT22;15937;50.612;6.656;2024-02-16T18:21:47;11.50;99.90
26270;DHT22;15937;50.612;6.656;2024-02-16T18:25:49;11.50;99.90
26270;DHT22;15937;50.612;6.656;2024-02-16T18:29:52;11.50;99.90
26270;DHT22;15937;50.612;6.656;2024-02-16T18:33:54;11.50;99.90
26270;DHT22;15937;50.612;6.656;2024-02-16T18:37:57;11.50;99.90
26270;DHT22;15937;50.612;6.656;2024-02-16T18:41:59;11.50;99.90
26270;DHT22;15937;50.612;6.656;2024-02-16T18:46:01;11.50;99.90
26270;DHT22;15937;50.612;6.656;2024-02-16T18:50:04;11.50;99.90
26270;DHT22;15937;50.612;6.656;2024-02-16T18:54:07;11.50;99.90
26270;DHT22;15937;50.612;6.656;2024-02-16T18:58:12;11.40;99.90
26270;DHT22;15937;50.612;6.656;2024-02-16T19:02:14;11.40;99.90
26270;DHT22;15937;50.612;6.656;2024-02-16T19:06:18;11.30;99.90
26270;DHT22;15937;50.612;6.656;2024-02-16T19:10:20;11.40;99.90
26270;DHT22;15937;50.612;6.656;2024-02-16T19:14:23;11.40;99.90
26270;DHT22;15937;50.612;6.656;2024-02-16T19:18:26;11.40;99.90
26270;DHT22;15937;50.612;6.656;2024-02-16T19:22:28;11.40;99.90
26270;DHT22;15937;50.612;6.656;2024-02-16T19:26:30;11.40;99.90
26270;DHT22;15937;50.612;6.656;2024-02-16T19:30:34;11.30;99.90
26270;DHT22;15937;50.612;6.656;2024-02-16T19:34:35;11.30;99.90
26270;DHT22;15937;50.612;6.656;2024-02-16T19:38:38;11.30;99.90
26270;DHT22;15937;50.612;6.656;2024-02-16T19:42:43;11.20;99.90
26270;DHT22;15937;50.612;6.656;2024-02-16T19:46:45;11.20;99.90
26270;DHT22;15937;50.612;6.656;2024-02-16T19:50:47;11.20;99.90
26270;DHT22;15937;50.612;6.656;2024-02-16T19:54:50;11.20;99.90
26270;DHT22;15937;50.612;6.656;2024-02-16T19:58:53;11.20;99.90
26270;DHT22;15937;50.612;6.656;2024-02-16T20:02:55;11.20;99.90
26270;DHT22;15937;50.612;6.656;2024-02-16T20:07:01;11.10;99.90
26270;DHT22;15937;50.612;6.656;2024-02-16T20:11:03;11.10;99.90
26270;DHT22;15937;50.612;6.656;2024-02-16T20:15:06;11.10;99.90
26270;DHT22;15937;50.612;6.656;2024-02-16T20:19:08;11.00;99.90
26270;DHT22;15937;50.612;6.656;2024-02-16T20:23:11;11.00;99.90
26270;DHT22;15937;50.612;6.656;2024-02-16T20:27:13;11.00;99.90
26270;DHT22;15937;50.612;6.656;2024-02-16T20:31:18;11.00;99.90
26270;DHT22;15937;50.612;6.656;2024-02-16T20:35:21;11.00;99.90
26270;DHT22;15937;50.612;6.656;2024-02-16T20:39:23;11.00;99.90
26270;DHT22;15937;50.612;6.656;2024-02-16T20:43:25;11.00;99.90
26270;DHT22;15937;50.612;6.656;2024-02-16T20:47:27;11.00;99.90
26270;DHT22;15937;50.612;6.656;2024-02-16T20:51:29;11.00;99.90
26270;DHT22;15937;50.612;6.656;2024-02-16T20:55:31;11.00;99.90
26270;DHT22;15937;50.612;6.656;2024-02-16T20:59:33;11.00;99.90
26270;DHT22;15937;50.612;6.656;2024-02-16T21:03:35;11.00;99.90
26270;DHT22;15937;50.612;6.656;2024-02-16T21:07:39;11.00;99.90
26270;DHT22;15937;50.612;6.656;2024-02-16T21:11:41;11.10;99.90
26270;DHT22;15937;50.612;6.656;2024-02-16T21:15:43;11.10;99.90
26270;DHT22;15937;50.612;6.656;2024-02-16T21:19:48;11.00;99.90
26270;DHT22;15937;50.612;6.656;2024-02-16T21:23:50;11.00;99.90
26270;DHT22;15937;50.612;6.656;2024-02-16T21:27:52;11.00;99.90
26270;DHT22;15937;50.612;6.656;2024-02-16T21:31:54;11.00;99.90
26270;DHT22;15937;50.612;6.656;2024-02-16T21:35:56;11.10;99.90
26270;DHT22;15937;50.612;6.656;2024-02-16T21:40:00;11.10;99.90
26270;DHT22;15937;50.612;6.656;2024-02-16T21:44:04;11.10;99.90
26270;DHT22;15937;50.612;6.656;2024-02-16T21:48:06;11.00;99.90
26270;DHT22;15937;50.612;6.656;2024-02-16T21:52:09;11.00;99.90
26270;DHT22;15937;50.612;6.656;2024-02-16T21:56:12;11.00;99.90
26270;DHT22;15937;50.612;6.656;2024-02-16T22:00:14;11.00;99.90
26270;DHT22;15937;50.612;6.656;2024-02-16T22:04:18;11.10;99.90
26270;DHT22;15937;50.612;6.656;2024-02-16T22:08:21;11.10;99.90
26270;DHT22;15937;50.612;6.656;2024-02-16T22:12:23;11.00;99.90
26270;DHT22;15937;50.612;6.656;2024-02-16T22:16:25;11.00;99.90
26270;DHT22;15937;50.612;6.656;2024-02-16T22:20:27;11.00;99.90
26270;DHT22;15937;50.612;6.656;2024-02-16T22:24:30;11.00;99.90
26270;DHT22;15937;50.612;6.656;2024-02-16T22:28:32;11.00;99.90
26270;DHT22;15937;50.612;6.656;2024-02-16T22:32:35;11.00;99.90
26270;DHT22;15937;50.612;6.656;2024-02-16T22:36:37;11.00;99.90
26270;DHT22;15937;50.612;6.656;2024-02-16T22:40:41;10.90;99.90
26270;DHT22;15937;50.612;6.656;2024-02-16T22:44:43;10.90;99.90
26270;DHT22;15937;50.612;6.656;2024-02-16T22:48:45;10.80;99.90
26270;DHT22;15937;50.612;6.656;2024-02-16T22:52:47;10.70;99.90
26270;DHT22;15937;50.612;6.656;2024-02-16T22:56:51;10.60;99.90
26270;DHT22;15937;50.612;6.656;2024-02-16T23:00:54;10.40;99.90
26270;DHT22;15937;50.612;6.656;2024-02-16T23:04:58;10.40;99.90
26270;DHT22;15937;50.612;6.656;2024-02-16T23:09:03;10.40;99.90
26270;DHT22;15937;50.612;6.656;2024-02-16T23:13:11;10.30;99.90
26270;DHT22;15937;50.612;6.656;2024-02-16T23:17:14;10.30;99.90
26270;DHT22;15937;50.612;6.656;2024-02-16T23:21:17;10.30;99.90
26270;DHT22;15937;50.612;6.656;2024-02-16T23:25:19;10.40;99.90
26270;DHT22;15937;50.612;6.656;2024-02-16T23:29:21;10.30;99.90
26270;DHT22;15937;50.612;6.656;2024-02-16T23:33:30;10.30;99.90
26270;DHT22;15937;50.612;6.656;2024-02-16T23:37:32;10.30;99.90
26270;DHT22;15937;50.612;6.656;2024-02-16T23:41:36;10.20;99.90
26270;DHT22;15937;50.612;6.656;2024-02-16T23:45:38;10.30;99.90
26270;DHT22;15937;50.612;6.656;2024-02-16T23:49:40;10.20;99.90
26270;DHT22;15937;50.612;6.656;2024-02-16T23:53:42;10.20;99.90
26270;DHT22;15937;50.612;6.656;2024-02-16T23:57:44;10.20;99.90
